Time;durP1;ratioP1;P1;durP2;ratioP2;P2;SDS_P1;SDS_P2;PMS_P1;PMS_P2;Temp;Humidity;BMP_temperature;BMP_pressure;BME280_temperature;BME280_humidity;BME280_pressure;Samples;Min_cycle;Max_cycle;Signal;HPM_P1;HPM_P2
2021/12/08 00:02:08;;;;;;;18.60;11.33;;;;;;;;;;5133460;27;20055;-70
2021/12/08 00:04:34;;;;;;;19.00;11.23;;;;;;;;;;5097823;27;20054;-70
2021/12/08 00:06:59;;;;;;;19.27;10.80;;;;;;;;;;5128975;27;20458;-70
2021/12/08 00:09:34;;;;;;;18.47;10.70;;;;;;;;;;5130828;27;20111;-70
2021/12/08 00:14:44;;;;;;;18.03;10.80;;;;;;;;;;5131685;27;20042;-70
2021/12/08 00:17:09;;;;;;;16.90;10.67;;;;;;;;;;5123703;27;20472;-70
2021/12/08 00:19:34;;;;;;;17.73;9.93;;;;;;;;;;5126059;27;20106;-70
2021/12/08 00:22:00;;;;;;;16.43;9.90;;;;;;;;;;5116038;27;20529;-70
2021/12/08 00:24:25;;;;;;;15.40;9.50;;;;;;;;;;5116377;27;20031;-70
2021/12/08 00:26:51;;;;;;;18.33;10.37;;;;;;;;;;5099357;27;20608;-69
2021/12/08 00:29:16;;;;;;;16.90;9.97;;;;;;;;;;5110894;27;20044;-69
2021/12/08 00:31:45;;;;;;;15.97;9.70;;;;;;;;;;5113423;27;20545;-70
2021/12/08 00:34:11;;;;;;;13.97;8.43;;;;;;;;;;5129075;27;20023;-70
2021/12/08 00:36:42;;;;;;;17.83;10.30;;;;;;;;;;5115233;27;20122;-70
2021/12/08 00:39:08;;;;;;;16.00;10.27;;;;;;;;;;5132739;27;20097;-70
2021/12/08 00:41:33;;;;;;;18.13;9.67;;;;;;;;;;5121799;27;20566;-70
2021/12/08 00:43:58;;;;;;;20.53;12.07;;;;;;;;;;5127017;27;20554;-70
2021/12/08 00:46:23;;;;;;;18.73;10.23;;;;;;;;;;5122280;27;20459;-70
2021/12/08 00:48:50;;;;;;;17.33;10.20;;;;;;;;;;5130340;27;20072;-70
2021/12/08 00:51:16;;;;;;;19.87;11.60;;;;;;;;;;5113630;27;20495;-70
2021/12/08 00:53:41;;;;;;;21.33;12.33;;;;;;;;;;5134436;27;20057;-70
2021/12/08 00:56:07;;;;;;;19.50;10.70;;;;;;;;;;5098359;27;20047;-69
2021/12/08 00:58:32;;;;;;;19.83;10.47;;;;;;;;;;5109409;27;20483;-69
2021/12/08 01:00:57;;;;;;;21.83;11.43;;;;;;;;;;5108903;27;20028;-69
2021/12/08 01:03:22;;;;;;;17.90;10.63;;;;;;;;;;5114033;27;20085;-70
2021/12/08 01:05:52;;;;;;;17.37;10.03;;;;;;;;;;5096017;27;20037;-69
2021/12/08 01:08:18;;;;;;;17.17;9.77;;;;;;;;;;5133180;27;20547;-69
2021/12/08 01:10:44;;;;;;;14.97;8.60;;;;;;;;;;5113820;27;20027;-69
2021/12/08 01:13:10;;;;;;;14.70;9.10;;;;;;;;;;5110671;27;20068;-69
2021/12/08 01:15:37;;;;;;;17.70;9.40;;;;;;;;;;5121980;27;20028;-70
2021/12/08 01:18:03;;;;;;;16.13;8.93;;;;;;;;;;5133054;27;20030;-70
2021/12/08 01:20:28;;;;;;;15.80;9.20;;;;;;;;;;5114433;27;20027;-70
2021/12/08 01:22:53;;;;;;;15.90;8.40;;;;;;;;;;5114779;27;20118;-69
2021/12/08 01:25:19;;;;;;;16.03;9.53;;;;;;;;;;5124920;27;20035;-69
2021/12/08 01:27:44;;;;;;;17.73;9.30;;;;;;;;;;5128020;27;20058;-70
2021/12/08 01:30:11;;;;;;;14.00;7.33;;;;;;;;;;5102055;27;20023;-70
2021/12/08 01:32:36;;;;;;;13.67;7.60;;;;;;;;;;5131462;27;20027;-70
2021/12/08 01:35:04;;;;;;;14.10;7.60;;;;;;;;;;5109736;27;20391;-69
2021/12/08 01:37:29;;;;;;;11.80;7.37;;;;;;;;;;5093268;27;20023;-70
2021/12/08 01:39:54;;;;;;;11.10;6.40;;;;;;;;;;5128779;27;20520;-70
2021/12/08 01:42:28;;;;;;;12.80;7.00;;;;;;;;;;5123180;27;20076;-70
2021/12/08 01:47:37;;;;;;;11.97;6.57;;;;;;;;;;5112748;27;20034;-69
2021/12/08 01:50:04;;;;;;;11.55;6.30;;;;;;;;;;5109637;27;20031;-69
2021/12/08 01:52:30;;;;;;;10.27;4.87;;;;;;;;;;5113670;27;20126;-70
2021/12/08 01:54:55;;;;;;;9.57;5.17;;;;;;;;;;5130464;27;20128;-69
2021/12/08 01:57:20;;;;;;;9.37;5.07;;;;;;;;;;5109142;27;20031;-69
2021/12/08 01:59:45;;;;;;;9.40;5.17;;;;;;;;;;5119438;27;20576;-69
2021/12/08 02:02:11;;;;;;;10.20;4.73;;;;;;;;;;5093034;27;20514;-69
2021/12/08 02:04:36;;;;;;;9.33;5.33;;;;;;;;;;5104128;27;20028;-70
2021/12/08 02:07:01;;;;;;;9.43;4.80;;;;;;;;;;5129545;27;20491;-69
2021/12/08 02:09:27;;;;;;;9.63;4.83;;;;;;;;;;5114510;27;20383;-69
2021/12/08 02:11:55;;;;;;;7.00;3.83;;;;;;;;;;5130854;27;20471;-70
2021/12/08 02:14:21;;;;;;;7.80;4.43;;;;;;;;;;5110945;27;20038;-69
2021/12/08 02:16:48;;;;;;;6.47;3.40;;;;;;;;;;5123781;27;20062;-69
2021/12/08 02:19:13;;;;;;;7.13;4.00;;;;;;;;;;5131519;27;20059;-69
2021/12/08 02:21:40;;;;;;;7.50;3.93;;;;;;;;;;5131408;27;20501;-70
2021/12/08 02:24:10;;;;;;;7.93;4.07;;;;;;;;;;5114356;27;20027;-70
2021/12/08 02:26:36;;;;;;;7.13;4.07;;;;;;;;;;5129084;27;20038;-70
2021/12/08 02:29:08;;;;;;;6.30;4.40;;;;;;;;;;5129423;27;20027;-69
2021/12/08 02:31:48;;;;;;;7.37;4.37;;;;;;;;;;5112573;27;20611;-69
2021/12/08 02:47:54;;;;;;;11.87;5.57;;;;;;;;;;5128271;27;20076;-69
2021/12/08 02:50:28;;;;;;;12.50;5.93;;;;;;;;;;5120516;27;20027;-70
2021/12/08 02:52:54;;;;;;;11.87;6.30;;;;;;;;;;5128019;28;20030;-70
2021/12/08 02:55:19;;;;;;;12.87;6.53;;;;;;;;;;5114378;28;20023;-70
2021/12/08 02:57:44;;;;;;;11.53;6.53;;;;;;;;;;5130143;28;20052;-70
2021/12/08 03:00:11;;;;;;;10.27;5.93;;;;;;;;;;5129519;28;20023;-69
2021/12/08 03:02:36;;;;;;;11.47;6.37;;;;;;;;;;5129653;28;20051;-70
2021/12/08 03:05:02;;;;;;;14.07;6.80;;;;;;;;;;5110793;28;20722;-70
2021/12/08 03:07:28;;;;;;;9.50;5.30;;;;;;;;;;5118800;28;20019;-70
2021/12/08 03:09:53;;;;;;;11.93;6.13;;;;;;;;;;5116592;28;20023;-69
2021/12/08 03:12:28;;;;;;;9.77;5.87;;;;;;;;;;5113476;28;20031;-69
2021/12/08 03:14:54;;;;;;;10.50;5.47;;;;;;;;;;5127530;28;20023;-70
2021/12/08 03:17:19;;;;;;;10.17;4.73;;;;;;;;;;5130818;28;20016;-69
2021/12/08 03:19:44;;;;;;;10.23;5.23;;;;;;;;;;5125778;27;20023;-69
2021/12/08 03:22:11;;;;;;;9.97;5.43;;;;;;;;;;5117253;27;20029;-69
2021/12/08 03:24:39;;;;;;;8.70;4.40;;;;;;;;;;5115687;27;20126;-69
2021/12/08 03:27:14;;;;;;;7.83;4.03;;;;;;;;;;5115994;27;20474;-70
2021/12/08 03:32:17;;;;;;;7.20;3.23;;;;;;;;;;5133695;27;20035;-69
2021/12/08 03:34:51;;;;;;;7.93;3.83;;;;;;;;;;5115173;27;20102;-69
2021/12/08 03:37:23;;;;;;;7.30;3.53;;;;;;;;;;5136567;27;20027;-70
2021/12/08 03:39:50;;;;;;;7.50;3.40;;;;;;;;;;5112021;27;20429;-70
2021/12/08 03:42:15;;;;;;;5.67;2.80;;;;;;;;;;5097818;27;20044;-70
2021/12/08 03:44:40;;;;;;;6.50;2.93;;;;;;;;;;5133891;27;20076;-69
2021/12/08 03:47:14;;;;;;;5.40;2.90;;;;;;;;;;5114922;27;20091;-70
2021/12/08 03:49:39;;;;;;;6.37;2.57;;;;;;;;;;5087860;27;20050;-70
2021/12/08 03:52:05;;;;;;;5.50;2.80;;;;;;;;;;5116955;27;20042;-69
2021/12/08 03:54:30;;;;;;;6.37;3.70;;;;;;;;;;5115387;27;20360;-69
2021/12/08 03:56:55;;;;;;;6.87;3.50;;;;;;;;;;5116837;27;20050;-70
2021/12/08 03:59:21;;;;;;;7.07;3.43;;;;;;;;;;5109038;27;20061;-69
2021/12/08 04:01:46;;;;;;;7.53;4.00;;;;;;;;;;5123467;27;20028;-69
2021/12/08 04:04:13;;;;;;;7.53;4.70;;;;;;;;;;5108170;28;20502;-68
2021/12/08 04:06:47;;;;;;;10.17;4.50;;;;;;;;;;5112962;27;20038;-68
2021/12/08 04:09:19;;;;;;;5.47;3.33;;;;;;;;;;5135519;27;20071;-69
2021/12/08 04:11:45;;;;;;;8.73;4.57;;;;;;;;;;5132587;27;20113;-69
2021/12/08 04:14:12;;;;;;;7.53;4.40;;;;;;;;;;5115461;27;20502;-68
2021/12/08 04:16:40;;;;;;;9.07;5.03;;;;;;;;;;5132932;27;20092;-68
2021/12/08 04:19:06;;;;;;;9.70;5.47;;;;;;;;;;5135211;27;20020;-68
2021/12/08 04:21:32;;;;;;;9.17;4.97;;;;;;;;;;5133112;27;20122;-68
2021/12/08 04:23:58;;;;;;;9.33;5.13;;;;;;;;;;5098103;27;20160;-68
2021/12/08 04:26:29;;;;;;;8.20;4.90;;;;;;;;;;5132920;27;20019;-69
2021/12/08 04:28:54;;;;;;;9.43;4.80;;;;;;;;;;5113772;27;20023;-68
2021/12/08 04:31:28;;;;;;;9.10;5.00;;;;;;;;;;5114469;27;20019;-69
2021/12/08 04:33:58;;;;;;;7.77;4.60;;;;;;;;;;5115699;27;20060;-69
2021/12/08 04:36:25;;;;;;;9.63;4.67;;;;;;;;;;5099102;27;20067;-69
2021/12/08 04:38:55;;;;;;;8.63;4.67;;;;;;;;;;5134984;27;20015;-69
2021/12/08 04:41:27;;;;;;;7.93;4.40;;;;;;;;;;5115842;27;20492;-69
2021/12/08 04:44:06;;;;;;;7.87;4.77;;;;;;;;;;5104596;27;20051;-68
2021/12/08 04:47:22;;;;;;;9.63;5.17;;;;;;;;;;5132108;27;20015;-69
2021/12/08 05:00:57;;;;;;;7.27;4.57;;;;;;;;;;5130925;27;20088;-68
2021/12/08 05:06:37;;;;;;;8.17;4.57;;;;;;;;;;5131628;27;20031;-69
2021/12/08 05:09:05;;;;;;;7.83;4.07;;;;;;;;;;5130844;27;20111;-69
2021/12/08 05:11:32;;;;;;;7.90;4.70;;;;;;;;;;5133544;27;20019;-69
2021/12/08 05:14:06;;;;;;;7.30;4.27;;;;;;;;;;5129632;27;20023;-68
2021/12/08 05:16:32;;;;;;;8.23;4.53;;;;;;;;;;5119914;27;20466;-70
2021/12/08 05:19:00;;;;;;;8.33;4.27;;;;;;;;;;5119291;27;20110;-68
2021/12/08 05:21:29;;;;;;;6.53;4.37;;;;;;;;;;5107544;27;20041;-69
2021/12/08 05:24:05;;;;;;;8.30;3.97;;;;;;;;;;5129964;27;20468;-69
2021/12/08 05:26:33;;;;;;;8.90;4.40;;;;;;;;;;5124927;27;20019;-69
2021/12/08 05:29:09;;;;;;;7.87;4.23;;;;;;;;;;5122455;27;20065;-69
2021/12/08 05:31:35;;;;;;;7.20;4.53;;;;;;;;;;5130576;27;20072;-69
2021/12/08 05:34:00;;;;;;;8.03;4.47;;;;;;;;;;5133341;27;20075;-69
2021/12/08 05:36:26;;;;;;;7.50;4.13;;;;;;;;;;5116131;27;20027;-69
2021/12/08 05:38:52;;;;;;;9.47;5.50;;;;;;;;;;5101404;27;20015;-69
2021/12/08 05:41:20;;;;;;;8.50;4.67;;;;;;;;;;5134059;27;20540;-70
2021/12/08 05:43:45;;;;;;;7.10;4.37;;;;;;;;;;5130633;27;20034;-70
2021/12/08 05:46:12;;;;;;;6.27;3.80;;;;;;;;;;5095360;27;20023;-70
2021/12/08 05:48:38;;;;;;;8.97;4.37;;;;;;;;;;5129988;27;20107;-69
2021/12/08 05:51:07;;;;;;;7.10;4.87;;;;;;;;;;5133146;27;20065;-70
2021/12/08 05:53:34;;;;;;;7.83;4.70;;;;;;;;;;5131783;27;20505;-70
2021/12/08 05:55:59;;;;;;;7.87;4.60;;;;;;;;;;5110865;27;20011;-69
2021/12/08 05:58:26;;;;;;;8.27;5.00;;;;;;;;;;5120406;27;20011;-70
2021/12/08 06:00:56;;;;;;;8.33;5.13;;;;;;;;;;5106441;27;20026;-69
2021/12/08 06:03:22;;;;;;;7.90;5.20;;;;;;;;;;5132838;27;20043;-70
2021/12/08 06:05:49;;;;;;;7.53;4.63;;;;;;;;;;5130310;27;20034;-70
2021/12/08 06:08:15;;;;;;;7.63;4.80;;;;;;;;;;5119332;27;20409;-70
2021/12/08 06:10:40;;;;;;;8.03;4.67;;;;;;;;;;5131030;27;20045;-68
2021/12/08 06:13:07;;;;;;;9.13;5.13;;;;;;;;;;5112334;27;20012;-70
2021/12/08 06:15:32;;;;;;;7.30;4.50;;;;;;;;;;5111095;27;20016;-69
2021/12/08 06:17:58;;;;;;;9.57;5.23;;;;;;;;;;5097605;28;20023;-70
2021/12/08 06:20:23;;;;;;;7.00;4.77;;;;;;;;;;5110375;27;20476;-69
2021/12/08 06:22:50;;;;;;;8.30;5.20;;;;;;;;;;5114712;27;20015;-70
2021/12/08 06:25:17;;;;;;;8.83;5.43;;;;;;;;;;5130643;27;20495;-70
2021/12/08 06:27:44;;;;;;;7.53;4.80;;;;;;;;;;5107657;27;20015;-70
2021/12/08 06:30:11;;;;;;;8.87;5.50;;;;;;;;;;5104272;27;20498;-69
2021/12/08 06:32:37;;;;;;;8.87;5.17;;;;;;;;;;5124697;27;20067;-70
2021/12/08 06:35:04;;;;;;;9.93;5.40;;;;;;;;;;5122425;27;20015;-70
2021/12/08 06:37:32;;;;;;;8.60;5.03;;;;;;;;;;5124790;27;20050;-70
2021/12/08 06:39:57;;;;;;;9.53;4.60;;;;;;;;;;5119616;27;20029;-69
2021/12/08 06:42:31;;;;;;;8.77;5.77;;;;;;;;;;5106014;27;20022;-70
2021/12/08 06:44:58;;;;;;;9.87;5.70;;;;;;;;;;5125781;27;20027;-70
2021/12/08 06:47:25;;;;;;;10.53;6.67;;;;;;;;;;5130861;27;20026;-75
2021/12/08 06:49:52;;;;;;;11.73;5.83;;;;;;;;;;5130633;27;20471;-73
2021/12/08 06:52:19;;;;;;;10.23;6.13;;;;;;;;;;5132103;27;20027;-70
2021/12/08 06:54:48;;;;;;;8.97;5.80;;;;;;;;;;5113108;28;20098;-69
2021/12/08 06:57:18;;;;;;;11.40;6.87;;;;;;;;;;5131230;28;20019;-71
2021/12/08 06:59:56;;;;;;;7.30;5.30;;;;;;;;;;5127251;28;20056;-68
2021/12/08 07:02:49;;;;;;;8.87;5.33;;;;;;;;;;5098332;28;20050;-72
2021/12/08 07:05:14;;;;;;;8.40;5.32;;;;;;;;;;5126969;27;20491;-74
2021/12/08 07:07:41;;;;;;;7.90;5.50;;;;;;;;;;5113245;28;20035;-73
2021/12/08 07:10:14;;;;;;;9.70;5.87;;;;;;;;;;5113287;28;20114;-73
2021/12/08 07:12:44;;;;;;;9.43;6.33;;;;;;;;;;5117852;28;20042;-75
2021/12/08 07:15:11;;;;;;;9.07;5.50;;;;;;;;;;5116983;28;20042;-75
2021/12/08 07:17:38;;;;;;;8.60;5.93;;;;;;;;;;5120373;27;20019;-73
2021/12/08 07:20:17;;;;;;;12.20;6.53;;;;;;;;;;5128116;28;20030;-71
2021/12/08 07:22:45;;;;;;;8.23;5.07;;;;;;;;;;5110323;28;20015;-72
2021/12/08 07:25:12;;;;;;;9.77;6.43;;;;;;;;;;5131887;27;20026;-75
2021/12/08 07:27:38;;;;;;;9.03;6.10;;;;;;;;;;5131295;28;20011;-70
2021/12/08 07:30:12;;;;;;;8.17;5.37;;;;;;;;;;5127447;27;20478;-79
2021/12/08 07:32:38;;;;;;;10.88;5.88;;;;;;;;;;5116798;28;20106;-70
2021/12/08 07:35:10;;;;;;;8.43;5.90;;;;;;;;;;5113255;28;20026;-69
2021/12/08 07:37:36;;;;;;;9.90;6.07;;;;;;;;;;5131782;28;20015;-71
2021/12/08 07:40:07;;;;;;;10.43;6.13;;;;;;;;;;5131143;28;20485;-70
2021/12/08 07:42:35;;;;;;;10.13;6.03;;;;;;;;;;5107023;28;20458;-75
2021/12/08 07:45:03;;;;;;;9.27;5.63;;;;;;;;;;5131233;28;20103;-69
2021/12/08 07:47:29;;;;;;;8.97;5.13;;;;;;;;;;5129469;28;20027;-73
2021/12/08 07:50:05;;;;;;;9.40;6.43;;;;;;;;;;5113350;28;20023;-75
2021/12/08 07:52:34;;;;;;;10.63;6.20;;;;;;;;;;5131844;28;20065;-71
2021/12/08 07:54:59;;;;;;;11.47;7.13;;;;;;;;;;5113209;28;20064;-72
2021/12/08 07:57:28;;;;;;;9.80;6.40;;;;;;;;;;5112865;28;20023;-73
2021/12/08 07:59:54;;;;;;;9.57;6.33;;;;;;;;;;5134812;27;20071;-76
2021/12/08 08:02:25;;;;;;;9.10;6.17;;;;;;;;;;5133745;27;20422;-69
2021/12/08 08:04:50;;;;;;;10.50;6.97;;;;;;;;;;5115408;28;20027;-75
2021/12/08 08:07:16;;;;;;;9.33;6.20;;;;;;;;;;5106581;27;20029;-75
2021/12/08 08:09:44;;;;;;;10.83;6.73;;;;;;;;;;5134085;27;20015;-70
2021/12/08 08:12:11;;;;;;;11.20;6.70;;;;;;;;;;5135423;27;20084;-69
2021/12/08 08:14:39;;;;;;;10.20;6.73;;;;;;;;;;5115760;27;20099;-74
2021/12/08 08:17:13;;;;;;;10.20;6.00;;;;;;;;;;5116799;27;20016;-72
2021/12/08 08:19:44;;;;;;;10.87;7.10;;;;;;;;;;5116186;27;20015;-73
2021/12/08 08:22:12;;;;;;;11.17;6.43;;;;;;;;;;5117367;27;20029;-73
2021/12/08 08:24:37;;;;;;;10.03;6.73;;;;;;;;;;5116130;27;20023;-72
2021/12/08 08:27:04;;;;;;;8.97;6.10;;;;;;;;;;5116179;27;20046;-69
2021/12/08 08:29:30;;;;;;;10.20;6.90;;;;;;;;;;5135838;27;20102;-70
2021/12/08 08:31:59;;;;;;;9.63;7.07;;;;;;;;;;5130277;27;20015;-73
2021/12/08 08:34:25;;;;;;;9.23;6.40;;;;;;;;;;5135505;27;20018;-75
2021/12/08 08:36:50;;;;;;;8.13;5.83;;;;;;;;;;5095820;27;20036;-72
2021/12/08 08:39:18;;;;;;;8.43;6.10;;;;;;;;;;5138852;27;20665;-75
2021/12/08 08:41:51;;;;;;;10.75;6.35;;;;;;;;;;5134478;27;20556;-75
2021/12/08 08:44:18;;;;;;;8.98;5.72;;;;;;;;;;5130645;27;20027;-79
2021/12/08 08:46:45;;;;;;;8.90;6.40;;;;;;;;;;5126520;27;20014;-76
2021/12/08 08:49:22;;;;;;;10.88;6.80;;;;;;;;;;5135255;27;20018;-78
2021/12/08 08:51:49;;;;;;;8.32;5.78;;;;;;;;;;5116104;27;20027;-75
2021/12/08 08:54:20;;;;;;;9.68;6.63;;;;;;;;;;5133809;27;20023;-74
2021/12/08 08:56:47;;;;;;;10.20;7.05;;;;;;;;;;5133792;27;20515;-75
2021/12/08 08:59:17;;;;;;;8.63;6.40;;;;;;;;;;5127014;27;20030;-76
2021/12/08 09:01:45;;;;;;;9.50;6.72;;;;;;;;;;5114991;27;20042;-74
2021/12/08 09:04:12;;;;;;;11.65;7.07;;;;;;;;;;5114825;27;20125;-72
2021/12/08 09:06:39;;;;;;;10.77;6.93;;;;;;;;;;5134014;27;20035;-71
2021/12/08 09:09:10;;;;;;;9.93;6.55;;;;;;;;;;5115033;27;20019;-73
2021/12/08 09:11:37;;;;;;;11.20;6.85;;;;;;;;;;5115289;27;20110;-69
2021/12/08 09:14:06;;;;;;;9.68;7.07;;;;;;;;;;5115567;27;20019;-72
2021/12/08 09:16:53;;;;;;;8.32;6.35;;;;;;;;;;5113426;27;20008;-79
2021/12/08 09:19:24;;;;;;;8.73;5.80;;;;;;;;;;5115190;27;20071;-69
2021/12/08 09:22:15;;;;;;;9.27;6.85;;;;;;;;;;5115531;27;20023;-73
2021/12/08 09:24:46;;;;;;;8.13;5.95;;;;;;;;;;5111011;27;20490;-73
2021/12/08 09:27:12;;;;;;;9.70;6.45;;;;;;;;;;5114521;27;20532;-76
2021/12/08 09:29:44;;;;;;;7.53;5.82;;;;;;;;;;5138163;27;20046;-72
2021/12/08 09:32:38;;;;;;;12.68;7.70;;;;;;;;;;5144929;27;20023;-77
2021/12/08 09:35:10;;;;;;;7.82;5.75;;;;;;;;;;5131987;27;20031;-77
2021/12/08 09:37:37;;;;;;;9.32;6.50;;;;;;;;;;5128832;27;20015;-75
2021/12/08 09:40:22;;;;;;;8.73;5.70;;;;;;;;;;5133352;27;20054;-68
2021/12/08 09:42:47;;;;;;;;;;;;;;;;;;5132662;27;20088;-74
2021/12/08 09:45:17;;;;;;;10.52;6.07;;;;;;;;;;5113962;27;19915;-72
2021/12/08 09:47:42;;;;;;;8.35;6.00;;;;;;;;;;5113701;27;20169;-74
2021/12/08 09:50:09;;;;;;;6.85;5.57;;;;;;;;;;5132923;27;20563;-73
2021/12/08 09:52:35;;;;;;;6.90;5.60;;;;;;;;;;5110694;27;20026;-72
2021/12/08 09:55:01;;;;;;;8.65;5.47;;;;;;;;;;5112811;28;20098;-72
2021/12/08 09:57:27;;;;;;;8.65;5.85;;;;;;;;;;5097294;27;20019;-73
2021/12/08 09:59:52;;;;;;;8.18;5.78;;;;;;;;;;5109033;27;20023;-72
2021/12/08 10:02:26;;;;;;;9.55;6.25;;;;;;;;;;5115330;27;20042;-70
2021/12/08 10:04:52;;;;;;;9.75;6.40;;;;;;;;;;5114080;27;20077;-75
2021/12/08 10:07:18;;;;;;;8.18;5.88;;;;;;;;;;5116308;27;20023;-72
2021/12/08 10:09:43;;;;;;;12.88;6.07;;;;;;;;;;5113284;27;20023;-74
2021/12/08 10:12:08;;;;;;;8.32;5.97;;;;;;;;;;5132505;27;20023;-74
2021/12/08 10:14:34;;;;;;;11.32;5.85;;;;;;;;;;5096677;27;20019;-74
2021/12/08 10:17:00;;;;;;;7.93;5.93;;;;;;;;;;5112719;27;20039;-70
2021/12/08 10:19:25;;;;;;;8.65;5.63;;;;;;;;;;5133134;27;20484;-75
2021/12/08 10:21:50;;;;;;;7.30;6.07;;;;;;;;;;5113762;27;20420;-75
2021/12/08 10:24:23;;;;;;;9.23;6.22;;;;;;;;;;5106635;27;20027;-70
2021/12/08 10:26:49;;;;;;;10.43;6.60;;;;;;;;;;5132400;27;20471;-70
2021/12/08 10:29:15;;;;;;;11.32;7.32;;;;;;;;;;5108475;27;20023;-70
2021/12/08 10:31:50;;;;;;;9.40;6.78;;;;;;;;;;5113320;27;20037;-70
2021/12/08 10:36:46;;;;;;;8.70;6.28;;;;;;;;;;5113711;27;20015;-70
2021/12/08 10:39:30;;;;;;;8.07;6.35;;;;;;;;;;5132839;27;20023;-70
2021/12/08 10:42:01;;;;;;;10.95;7.18;;;;;;;;;;5131383;27;20580;-70
2021/12/08 10:44:32;;;;;;;12.13;6.45;;;;;;;;;;5113436;28;20126;-70
2021/12/08 10:46:58;;;;;;;8.38;6.40;;;;;;;;;;5132433;27;20074;-70
2021/12/08 10:54:46;;;;;;;10.40;7.32;;;;;;;;;;5115309;28;20030;-71
2021/12/08 10:57:22;;;;;;;10.18;7.72;;;;;;;;;;5131703;28;20019;-71
2021/12/08 11:00:10;;;;;;;10.20;7.70;;;;;;;;;;5124749;27;20031;-70
2021/12/08 11:02:37;;;;;;;11.80;8.23;;;;;;;;;;5111090;28;20118;-71
2021/12/08 11:05:04;;;;;;;10.25;7.32;;;;;;;;;;5112641;28;20023;-71
2021/12/08 11:07:29;;;;;;;11.73;8.50;;;;;;;;;;5110780;28;20124;-70
2021/12/08 11:09:55;;;;;;;11.30;8.43;;;;;;;;;;5129632;28;20032;-71
2021/12/08 11:12:21;;;;;;;11.97;9.03;;;;;;;;;;5113660;28;20360;-71
2021/12/08 11:14:47;;;;;;;11.67;8.37;;;;;;;;;;5118388;28;20472;-72
2021/12/08 11:17:26;;;;;;;13.77;9.17;;;;;;;;;;5127467;28;20023;-72
2021/12/08 11:20:11;;;;;;;14.43;10.57;;;;;;;;;;5110639;28;20020;-72
2021/12/08 11:22:36;;;;;;;13.80;10.10;;;;;;;;;;5128978;28;20047;-72
2021/12/08 11:25:02;;;;;;;11.97;9.37;;;;;;;;;;5113480;28;20107;-72
2021/12/08 11:27:29;;;;;;;12.03;8.80;;;;;;;;;;5112095;28;20076;-72
2021/12/08 11:29:54;;;;;;;13.77;10.00;;;;;;;;;;5126060;27;20023;-72
2021/12/08 11:32:22;;;;;;;16.60;10.80;;;;;;;;;;5113517;28;20029;-72
2021/12/08 11:34:48;;;;;;;15.03;10.63;;;;;;;;;;5131150;28;20014;-72
2021/12/08 11:37:18;;;;;;;15.07;11.23;;;;;;;;;;5113444;28;20111;-72
2021/12/08 11:40:00;;;;;;;17.33;11.68;;;;;;;;;;5131593;27;20033;-72
2021/12/08 11:42:29;;;;;;;15.27;10.47;;;;;;;;;;5126817;27;20021;-72
2021/12/08 11:44:56;;;;;;;15.05;10.98;;;;;;;;;;5133764;27;20034;-72
2021/12/08 11:47:28;;;;;;;17.63;11.43;;;;;;;;;;5113321;27;20464;-76
2021/12/08 11:49:55;;;;;;;16.05;11.68;;;;;;;;;;5117097;27;20041;-77
2021/12/08 11:52:23;;;;;;;18.52;12.38;;;;;;;;;;5134181;27;20051;-74
2021/12/08 11:55:03;;;;;;;18.83;12.43;;;;;;;;;;5107650;27;20175;-69
2021/12/08 11:57:33;;;;;;;18.17;12.25;;;;;;;;;;5115501;27;20015;-73
2021/12/08 12:00:14;;;;;;;17.45;12.82;;;;;;;;;;5129159;27;20008;-72
2021/12/08 12:02:39;;;;;;;17.40;12.18;;;;;;;;;;5131480;27;20490;-71
2021/12/08 12:05:09;;;;;;;16.05;11.88;;;;;;;;;;5116011;27;20079;-71
2021/12/08 12:07:35;;;;;;;18.70;13.55;;;;;;;;;;5134777;27;20370;-71
2021/12/08 12:10:01;;;;;;;19.35;13.38;;;;;;;;;;5117739;27;20079;-72
2021/12/08 12:12:26;;;;;;;17.95;12.50;;;;;;;;;;5117066;27;20015;-71
2021/12/08 12:14:51;;;;;;;17.45;12.90;;;;;;;;;;5099375;27;20019;-71
2021/12/08 12:17:17;;;;;;;18.33;13.27;;;;;;;;;;5141318;27;20466;-71
2021/12/08 12:19:47;;;;;;;20.15;13.32;;;;;;;;;;5115061;27;20034;-71
2021/12/08 12:22:33;;;;;;;19.58;14.15;;;;;;;;;;5135196;27;20027;-71
2021/12/08 12:25:17;;;;;;;17.98;12.68;;;;;;;;;;5130554;27;20015;-69
2021/12/08 12:27:54;;;;;;;20.48;13.05;;;;;;;;;;5129210;27;20599;-70
2021/12/08 12:30:31;;;;;;;17.13;12.60;;;;;;;;;;5128113;27;20019;-69
2021/12/08 12:32:57;;;;;;;17.70;13.20;;;;;;;;;;5152395;27;20065;-69
2021/12/08 12:35:22;;;;;;;19.20;13.23;;;;;;;;;;5110513;27;20039;-69
2021/12/08 12:37:49;;;;;;;18.97;12.90;;;;;;;;;;5109457;27;20382;-69
2021/12/08 12:40:17;;;;;;;18.67;13.43;;;;;;;;;;5126928;27;20066;-69
2021/12/08 12:42:43;;;;;;;19.73;13.00;;;;;;;;;;5128236;27;20031;-69
2021/12/08 12:45:09;;;;;;;19.90;13.80;;;;;;;;;;5138272;27;20387;-69
2021/12/08 12:47:34;;;;;;;20.43;13.20;;;;;;;;;;5115565;27;20389;-69
2021/12/08 12:49:59;;;;;;;20.70;13.23;;;;;;;;;;5134364;27;20493;-69
2021/12/08 12:52:32;;;;;;;17.90;12.87;;;;;;;;;;5115224;27;20023;-69
2021/12/08 12:55:06;;;;;;;23.87;14.90;;;;;;;;;;5115599;27;20048;-69
2021/12/08 12:57:31;;;;;;;21.67;14.97;;;;;;;;;;5133315;27;20027;-69
2021/12/08 12:59:56;;;;;;;19.87;14.23;;;;;;;;;;5138527;27;20152;-69
2021/12/08 13:02:27;;;;;;;21.10;13.43;;;;;;;;;;5130756;27;20133;-74
2021/12/08 13:04:52;;;;;;;19.17;13.23;;;;;;;;;;5117418;27;20106;-70
2021/12/08 13:07:18;;;;;;;19.93;14.23;;;;;;;;;;5118784;27;20107;-69
2021/12/08 13:09:48;;;;;;;21.27;13.93;;;;;;;;;;5138436;27;20059;-71
2021/12/08 13:12:15;;;;;;;23.60;15.07;;;;;;;;;;5132975;27;20110;-74
2021/12/08 13:14:40;;;;;;;22.70;14.43;;;;;;;;;;5132790;27;20490;-72
2021/12/08 13:17:24;;;;;;;22.40;14.83;;;;;;;;;;5134353;27;20023;-71
2021/12/08 13:19:55;;;;;;;22.03;14.90;;;;;;;;;;5136637;27;20042;-75
2021/12/08 13:22:39;;;;;;;23.27;15.03;;;;;;;;;;5115067;27;20031;-73
2021/12/08 13:25:04;;;;;;;22.77;14.17;;;;;;;;;;5114800;27;20027;-75
2021/12/08 13:27:30;;;;;;;23.60;15.33;;;;;;;;;;5130727;27;20451;-74
2021/12/08 13:30:08;;;;;;;21.60;15.10;;;;;;;;;;5134880;27;20086;-74
2021/12/08 13:32:46;;;;;;;22.20;15.20;;;;;;;;;;5120799;27;20027;-74
2021/12/08 13:35:13;;;;;;;21.93;15.33;;;;;;;;;;5113295;28;20023;-74
2021/12/08 13:37:54;;;;;;;22.57;15.40;;;;;;;;;;5138068;27;20023;-75
2021/12/08 13:40:19;;;;;;;21.90;15.00;;;;;;;;;;5116209;27;20518;-74
2021/12/08 13:42:49;;;;;;;21.60;14.60;;;;;;;;;;5115042;27;20141;-74
2021/12/08 13:45:16;;;;;;;23.43;15.33;;;;;;;;;;5113978;27;20088;-74
2021/12/08 13:47:42;;;;;;;24.00;15.00;;;;;;;;;;5113178;27;20027;-75
2021/12/08 13:50:12;;;;;;;26.30;16.77;;;;;;;;;;5113544;27;20125;-75
2021/12/08 13:52:56;;;;;;;23.67;15.13;;;;;;;;;;5115158;27;20030;-74
2021/12/08 13:55:23;;;;;;;24.47;15.80;;;;;;;;;;5104768;27;20032;-76
2021/12/08 13:58:11;;;;;;;24.43;16.30;;;;;;;;;;5140233;27;20505;-75
2021/12/08 14:00:38;;;;;;;30.27;17.80;;;;;;;;;;5109466;27;20027;-75
2021/12/08 14:03:08;;;;;;;25.63;17.27;;;;;;;;;;5115785;27;20118;-71
2021/12/08 14:05:35;;;;;;;26.17;16.67;;;;;;;;;;5114235;27;20027;-71
2021/12/08 14:08:13;;;;;;;27.27;16.87;;;;;;;;;;5135829;27;20022;-73
2021/12/08 14:10:43;;;;;;;26.13;16.70;;;;;;;;;;5127999;27;20047;-77
2021/12/08 14:13:08;;;;;;;23.73;15.47;;;;;;;;;;5132691;27;20055;-71
2021/12/08 14:15:42;;;;;;;25.00;16.77;;;;;;;;;;5114200;27;20092;-74
2021/12/08 14:18:24;;;;;;;24.93;16.80;;;;;;;;;;5113640;27;20479;-74
2021/12/08 14:20:55;;;;;;;23.93;15.70;;;;;;;;;;5132535;27;20019;-73
2021/12/08 14:23:21;;;;;;;26.23;15.17;;;;;;;;;;5134646;27;20019;-66
2021/12/08 14:25:57;;;;;;;25.60;17.03;;;;;;;;;;5130977;27;20018;-69
2021/12/08 14:28:39;;;;;;;23.30;15.20;;;;;;;;;;5129037;27;20083;-72
2021/12/08 14:31:22;;;;;;;24.97;16.20;;;;;;;;;;5132391;27;20560;-70
2021/12/08 14:33:54;;;;;;;25.17;16.40;;;;;;;;;;5131782;27;20015;-70
2021/12/08 14:36:25;;;;;;;24.80;16.43;;;;;;;;;;5142387;27;20046;-67
2021/12/08 14:38:52;;;;;;;25.67;16.30;;;;;;;;;;5139384;27;20023;-75
2021/12/08 14:41:21;;;;;;;26.43;16.93;;;;;;;;;;5141636;27;20539;-71
2021/12/08 14:43:49;;;;;;;27.73;16.43;;;;;;;;;;5119816;27;20495;-77
2021/12/08 14:46:16;;;;;;;29.50;16.67;;;;;;;;;;5097343;27;20027;-74
2021/12/08 14:48:53;;;;;;;26.27;16.93;;;;;;;;;;5088426;28;20039;-73
2021/12/08 14:51:21;;;;;;;27.40;17.73;;;;;;;;;;5116958;27;20105;-73
2021/12/08 14:53:46;;;;;;;28.03;17.17;;;;;;;;;;5131282;28;20022;-73
2021/12/08 14:56:12;;;;;;;31.53;18.07;;;;;;;;;;5123985;27;20015;-73
2021/12/08 14:58:38;;;;;;;24.97;15.87;;;;;;;;;;5142045;27;20023;-73
2021/12/08 15:01:05;;;;;;;30.47;17.63;;;;;;;;;;5110441;28;20060;-74
2021/12/08 15:03:37;;;;;;;26.37;15.87;;;;;;;;;;5110412;28;20115;-74
2021/12/08 15:06:02;;;;;;;27.27;16.73;;;;;;;;;;5113886;28;20056;-74
2021/12/08 15:08:27;;;;;;;27.27;17.27;;;;;;;;;;5130438;28;20481;-74
2021/12/08 15:10:53;;;;;;;26.47;16.80;;;;;;;;;;5112953;28;20023;-74
2021/12/08 15:13:24;;;;;;;28.60;16.80;;;;;;;;;;5128784;27;20425;-74
2021/12/08 15:15:56;;;;;;;29.03;17.07;;;;;;;;;;5131553;27;20023;-74
2021/12/08 15:18:21;;;;;;;25.40;15.43;;;;;;;;;;5117684;27;20015;-74
2021/12/08 15:20:47;;;;;;;28.67;17.87;;;;;;;;;;5117960;27;20502;-74
2021/12/08 15:23:24;;;;;;;27.30;18.00;;;;;;;;;;5110317;27;20490;-74
2021/12/08 15:25:52;;;;;;;26.37;17.50;;;;;;;;;;5116189;27;20022;-74